Latest Weather Observations for Julia Creek

IDQ60801

Issued at 7:02 pm EST Wednesday 29 July 2015 (issued every 30 minutes, with the page automatically refreshed every 10 minutes)

About weather observations | Map of weather stations | Latest weather observations for QLD | Other Formats
Station Details ID: 029058 Name: JULIA CREEK AIRPORT Lat: -20.67 Lon: 141.72 Height: 122.5 m
Data from the previous 72 hours. | See also: Recent months at Julia Creek
Date/Time
EST
Temp
°C
App
Temp
°C
Dew
Point
Rel
Hum
%
Delta-T
°C
Wind Press
QNH
hPa
Press
MSL
hPa
Rain
since 9 am
mm
Dir
 
Spd
km/h
Gust
km/h
Spd
kts
Gust
kts
29/07:00pm 21.0 16.0 -1.5 22 9.8 SSE 15 15 8 8 1020.7 1020.5 0.0
29/06:30pm 22.9 17.9 -1.2 20 10.7 SSE 15 19 8 10 1020.5 1020.3 0.0
29/06:00pm 25.5 20.2 -0.5 18 11.9 SE 17 22 9 12 1020.3 1020.1 0.0
29/05:30pm 27.0 21.4 -0.1 17 12.7 SE 19 24 10 13 1020.1 1019.9 0.0
29/05:00pm 27.6 21.9 0.4 17 12.9 SE 20 33 11 18 1020.0 1019.8 0.0
29/04:30pm 28.0 22.4 1.5 18 12.9 SE 20 30 11 16 1020.2 1020.0 0.0
29/04:00pm 28.1 22.7 2.3 19 12.7 SSE 20 32 11 17 1020.4 1020.2 0.0
29/03:30pm 28.1 22.9 2.3 19 12.7 ESE 19 28 10 15 1020.6 1020.4 0.0
29/03:00pm 28.3 23.4 3.9 21 12.4 SE 19 28 10 15 1020.8 1020.6 0.0
29/02:30pm 28.1 22.2 3.7 21 12.3 SE 24 35 13 19 1021.1 1020.9 0.0
29/02:00pm 27.7 21.6 2.7 20 12.3 SE 24 35 13 19 1021.5 1021.3 0.0
29/01:30pm 27.3 20.8 2.4 20 12.2 SE 26 35 14 19 1022.1 1021.9 0.0
29/01:00pm 26.9 20.7 2.1 20 12.0 ESE 24 33 13 18 1022.8 1022.5 0.0
29/12:30pm 26.4 19.8 2.3 21 11.8 SE 26 37 14 20 1023.4 1023.1 0.0
29/12:00pm 25.6 19.4 2.3 22 11.2 ESE 24 35 13 19 1024.1 1023.9 0.0
29/11:30am 23.7 16.9 0.7 22 10.7 SE 26 37 14 20 1024.7 1024.5 0.0
29/11:00am 22.6 15.3 -0.2 22 10.3 ESE 28 39 15 21 1025.1 1024.9 0.0
29/10:30am 21.7 14.4 -0.3 23 9.9 ESE 28 35 15 19 1025.4 1025.2 0.0
29/10:00am 20.4 12.5 -1.4 23 9.4 ESE 30 39 16 21 1025.3 1025.1 0.0
29/09:30am 19.3 11.7 -2.3 23 9.1 ESE 28 39 15 21 1025.3 1025.1 0.0
29/09:00am 17.0 9.3 -2.6 26 8.0 ESE 28 35 15 19 1025.0 1024.8 0.0
29/08:30am 15.1 7.4 -3.2 28 7.2 ESE 28 35 15 19 1024.9 1024.7 0.0
29/08:00am 13.5 5.7 -4.2 29 6.7 SE 28 35 15 19 1024.4 1024.2 0.0
29/07:30am 12.5 5.4 -4.1 31 6.2 SE 24 30 13 16 1024.1 1023.9 0.0
29/07:00am 12.0 5.3 -4.2 32 6.0 SE 22 26 12 14 1023.6 1023.3 0.0
29/06:30am 12.1 5.4 -4.5 31 6.2 SE 22 28 12 15 1023.6 1023.3 0.0
29/06:00am 12.2 5.1 -4.4 31 6.2 SE 24 30 13 16 1023.7 1023.5 0.0
29/05:30am 12.4 4.9 -4.7 30 6.4 SE 26 33 14 18 1023.6 1023.3 0.0
29/05:00am 12.6 5.1 -4.9 29 6.5 SE 26 33 14 18 1023.5 1023.2 0.0
29/04:30am 13.0 5.1 -5.1 28 6.7 SE 28 33 15 18 1023.6 1023.3 0.0
29/04:00am 13.5 5.6 -5.1 27 6.9 SE 28 35 15 19 1023.6 1023.3 0.0
29/03:30am 13.9 6.4 -4.8 27 7.1 SE 26 32 14 17 1023.7 1023.5 0.0
29/03:00am 14.2 6.7 -5.0 26 7.2 SE 26 33 14 18 1023.6 1023.3 0.0
29/02:30am 14.5 6.9 -5.3 25 7.5 SE 26 33 14 18 1023.7 1023.5 0.0
29/02:00am 15.0 7.0 -5.4 24 7.7 SE 28 35 15 19 1024.1 1023.9 0.0
29/01:30am 15.6 7.3 -5.4 23 8.0 SE 30 41 16 22 1024.3 1024.1 0.0
29/01:00am 16.2 7.5 -5.5 22 8.2 SE 32 39 17 21 1024.4 1024.2 0.0
29/12:30am 16.7 8.4 -5.1 22 8.4 SSE 30 43 16 23 1024.4 1024.2 0.0
29/12:00am 17.1 8.8 -4.8 22 8.5 SSE 30 39 16 21 1024.3 1024.1 0.0
 
Date/Time
EST
Temp
°C
App
Temp
°C
Dew
Point
Rel
Hum
%
Delta-T
°C
Wind Press
QNH
hPa
Press
MSL
hPa
Rain
since 9 am
mm
Dir
 
Spd
km/h
Gust
km/h
Spd
kts
Gust
kts
28/11:30pm 17.5 9.6 -5.0 21 8.8 SSE 28 35 15 19 1024.4 1024.2 0.0
28/11:00pm 17.9 10.4 -4.7 21 8.9 SE 26 33 14 18 1024.5 1024.3 0.0
28/10:30pm 18.3 10.9 -3.8 22 8.9 SSE 26 32 14 17 1024.4 1024.2 0.0
28/10:00pm 18.8 12.0 -2.2 24 8.8 SSE 24 32 13 17 1024.4 1024.2 0.0
28/09:30pm 19.3 12.1 -1.7 24 9.0 SSE 26 32 14 17 1024.3 1024.1 0.0
28/09:00pm 20.1 12.6 -1.1 24 9.2 SSE 28 37 15 20 1024.0 1023.8 0.0
28/08:30pm 20.5 13.2 -0.2 25 9.2 SSE 28 35 15 19 1023.8 1023.6 0.0
28/08:00pm 20.9 14.5 1.2 27 9.0 SSE 24 32 13 17 1023.4 1023.1 0.0
28/07:30pm 21.5 16.1 2.2 28 9.1 SSE 20 28 11 15 1023.2 1022.9 0.0
28/07:00pm 22.5 16.9 3.6 29 9.1 SSE 22 28 12 15 1022.7 1022.4 0.0
28/06:30pm 23.4 17.6 4.4 29 9.4 SSE 24 30 13 16 1022.5 1022.2 0.0
28/06:00pm 24.7 17.7 6.0 30 9.6 SE 32 43 17 23 1022.3 1022.1 0.0
28/05:30pm 25.5 18.7 6.7 30 9.9 SE 32 43 17 23 1022.2 1022.0 0.0
28/05:00pm 26.2 19.1 6.3 28 10.4 SE 33 44 18 24 1022.1 1021.9 0.0
28/04:30pm 26.3 19.2 6.4 28 10.4 SSE 33 46 18 25 1022.0 1021.8 0.0
28/04:00pm 26.5 19.3 6.0 27 10.6 SSE 33 44 18 24 1022.0 1021.8 0.0
28/03:30pm 26.6 19.5 5.5 26 10.9 SE 32 44 17 24 1022.1 1021.9 0.0
28/03:00pm 27.1 20.0 5.4 25 11.2 SE 32 41 17 22 1022.5 1022.2 0.0
28/02:30pm 26.0 18.7 5.6 27 10.5 SE 33 44 18 24 1022.8 1022.5 0.0
28/02:00pm 26.0 18.9 5.6 27 10.5 SE 32 43 17 23 1023.1 1022.8 0.0
28/01:30pm 25.5 18.3 5.1 27 10.4 SE 32 48 17 26 1023.3 1023.0 0.0
28/01:00pm 24.8 17.4 5.1 28 10.0 SE 33 48 18 26 1023.9 1023.7 0.0
28/12:30pm 23.8 16.1 5.2 30 9.4 SE 35 46 19 25 1024.3 1024.1 0.0
28/12:00pm 23.4 15.2 4.9 30 9.2 SE 37 50 20 27 1024.8 1024.6 0.0
28/11:30am 22.3 14.4 4.4 31 8.8 SE 35 50 19 27 1025.3 1025.1 0.0
28/11:00am 22.1 14.0 5.1 33 8.4 SE 37 48 20 26 1025.8 1025.6 0.0
28/10:30am 20.7 12.1 4.7 35 7.8 SE 39 48 21 26 1026.0 1025.8 0.0
28/10:00am 19.6 11.4 4.5 37 7.3 SE 37 50 20 27 1026.2 1026.0 0.0
28/09:30am 18.4 9.8 4.6 40 6.6 SE 39 48 21 26 1026.4 1026.2 0.0
28/09:00am 17.5 8.5 4.5 42 6.2 SE 41 54 22 29 1026.2 1026.0 0.0
28/08:30am 16.9 7.9 4.3 43 6.0 SSE 41 50 22 27 1025.9 1025.7 0.0
28/08:00am 16.4 8.5 4.1 44 5.7 SSE 35 46 19 25 1025.8 1025.6 0.0
28/07:30am 16.0 8.9 3.8 44 5.7 SSE 30 41 16 22 1025.5 1025.3 0.0
28/07:00am 15.5 9.1 3.3 44 5.6 SSE 26 35 14 19 1025.1 1024.9 0.0
28/06:30am 15.4 9.3 2.9 43 5.7 SSE 24 32 13 17 1024.9 1024.7 0.0
28/06:00am 15.4 9.7 2.6 42 5.7 SSE 22 28 12 15 1024.8 1024.6 0.0
28/05:30am 15.7 9.9 2.5 41 6.0 SSE 22 28 12 15 1024.5 1024.3 0.0
28/05:00am 15.9 10.4 2.0 39 6.2 SSE 20 26 11 14 1024.3 1024.1 0.0
28/04:30am 16.1 10.8 1.8 38 6.4 SSE 19 24 10 13 1024.4 1024.2 0.0
28/04:00am 16.1 11.0 1.0 36 6.6 SSE 17 20 9 11 1024.6 1024.4 0.0
28/03:30am 16.7 11.7 1.2 35 6.9 SSE 17 20 9 11 1024.3 1024.1 0.0
28/03:00am 17.5 11.9 1.1 33 7.3 SSE 20 28 11 15 1024.4 1024.2 0.0
28/02:30am 18.2 11.9 1.3 32 7.6 SSE 24 30 13 16 1024.4 1024.2 0.0
28/02:00am 18.8 12.5 1.3 31 7.9 SSE 24 33 13 18 1024.4 1024.2 0.0
28/01:30am 19.0 12.6 1.1 30 8.1 SSE 24 30 13 16 1024.6 1024.4 0.0
28/01:00am 19.2 12.8 1.2 30 8.1 SSE 24 33 13 18 1024.6 1024.4 0.0
28/12:30am 19.3 12.5 0.8 29 8.3 SSE 26 33 14 18 1024.8 1024.6 0.0
28/12:00am 19.5 13.1 1.0 29 8.3 S 24 33 13 18 1025.0 1024.8 0.0
 
Date/Time
EST
Temp
°C
App
Temp
°C
Dew
Point
Rel
Hum
%
Delta-T
°C
Wind Press
QNH
hPa
Press
MSL
hPa
Rain
since 9 am
mm
Dir
 
Spd
km/h
Gust
km/h
Spd
kts
Gust
kts
27/11:30pm 19.7 13.0 1.2 29 8.4 S 26 33 14 18 1025.0 1024.8 0.0
27/11:00pm 20.0 13.2 1.0 28 8.6 S 26 33 14 18 1025.2 1025.0 0.0
27/10:30pm 20.2 13.4 0.6 27 8.8 SSE 26 33 14 18 1025.2 1025.0 0.0
27/10:00pm 20.1 13.9 0.0 26 8.9 S 22 28 12 15 1025.1 1024.9 0.0
27/09:30pm 20.1 14.5 0.0 26 8.9 S 19 24 10 13 1025.3 1025.1 0.0
27/09:00pm 20.2 14.6 0.1 26 8.9 S 19 24 10 13 1025.5 1025.3 0.0
27/08:30pm 20.1 14.9 0.0 26 8.9 SSE 17 20 9 11 1025.1 1024.9 0.0
27/08:00pm 20.8 15.2 0.1 25 9.2 SSE 19 22 10 12 1024.8 1024.6 0.0
27/07:30pm 21.3 16.5 -0.1 24 9.6 SSE 15 20 8 11 1024.4 1024.2 0.0
27/07:00pm 22.7 16.9 -0.1 22 10.3 SSE 20 28 11 15 1023.8 1023.6 0.0
27/06:30pm 23.6 16.3 0.0 21 10.8 SSE 28 37 15 20 1023.5 1023.2 0.0
27/06:00pm 24.2 16.5 -0.2 20 11.1 SSE 30 43 16 23 1023.1 1022.8 0.0
27/05:30pm 24.6 16.4 0.2 20 11.3 SSE 33 43 18 23 1022.6 1022.3 0.0
27/05:00pm 25.1 16.6 0.6 20 11.4 SSE 35 44 19 24 1022.6 1022.3 0.0
27/04:30pm 25.9 17.1 1.2 20 11.8 SSE 37 46 20 25 1022.1 1021.9 0.0
27/04:00pm 26.3 17.0 0.9 19 12.0 SSE 39 46 21 25 1021.8 1021.6 0.0
27/03:30pm 27.1 19.1 1.5 19 12.4 SSE 33 43 18 23 1021.7 1021.5 0.0
27/03:00pm 27.1 19.2 0.8 18 12.5 SSE 32 43 17 23 1021.8 1021.6 0.0
27/02:30pm 27.3 19.5 1.7 19 12.4 SSE 32 44 17 24 1021.9 1021.7 0.0
27/02:00pm 26.8 18.7 1.3 19 12.2 SSE 33 43 18 23 1022.7 1022.4 0.0
27/01:30pm 25.8 17.9 1.2 20 11.7 SSE 32 44 17 24 1023.3 1023.0 0.0
27/01:19pm 26.3 18.3 1.6 20 11.9 SSE 33 52 18 28 1023.6 1023.3 0.0
27/01:00pm 25.6 17.5 1.0 20 11.6 SE 33 46 18 25 1024.0 1023.8 0.0
27/12:30pm 25.5 17.5 1.6 21 11.4 SE 33 46 18 25 1024.4 1024.2 0.0
27/12:00pm 23.8 15.0 1.4 23 10.5 SE 37 46 20 25 1024.9 1024.7 0.0
27/11:30am 23.6 14.5 1.9 24 10.3 SE 39 48 21 26 1025.4 1025.2 0.0
27/11:00am 22.9 14.6 1.9 25 9.9 SE 35 44 19 24 1025.9 1025.7 0.0
27/10:30am 22.5 14.6 2.1 26 9.6 SE 33 43 18 23 1026.4 1026.2 0.0
27/10:00am 21.3 13.0 2.1 28 8.9 SSE 35 44 19 24 1026.6 1026.4 0.0
27/09:30am 20.9 13.0 2.2 29 8.7 SSE 33 41 18 22 1026.5 1026.3 0.0
27/09:00am 20.6 12.8 2.9 31 8.3 SSE 33 41 18 22 1026.2 1026.0 0.0
27/08:30am 19.3 13.3 3.1 34 7.6 SSE 24 30 13 16 1025.9 1025.7 0.0
27/08:00am 18.4 13.1 3.1 36 7.1 SSE 20 28 11 15 1025.5 1025.3 0.0
27/07:30am 18.0 13.2 2.7 36 7.1 S 17 20 9 11 1025.3 1025.1 0.0
27/07:00am 18.3 13.5 2.6 35 7.2 SSE 17 20 9 11 1024.9 1024.7 0.0
27/06:30am 18.7 13.5 2.5 34 7.5 SSE 19 24 10 13 1024.4 1024.2 0.0
27/06:00am 19.2 14.1 3.0 34 7.6 SSE 19 24 10 13 1024.3 1024.1 0.0
27/05:30am 19.4 14.6 2.7 33 7.8 SSE 17 22 9 12 1023.8 1023.6 0.0
27/05:00am 19.3 14.2 3.1 34 7.6 SSE 19 24 10 13 1023.6 1023.3 0.0
27/04:30am 19.5 14.7 2.8 33 7.8 SSE 17 24 9 13 1023.6 1023.3 0.0
27/04:00am 19.9 14.3 3.2 33 7.9 SSE 22 28 12 15 1023.5 1023.2 0.0
27/03:30am 19.9 15.3 3.6 34 7.8 SSE 17 22 9 12 1023.5 1023.2 0.0
27/03:00am 19.6 14.9 3.3 34 7.7 SSE 17 22 9 12 1023.3 1023.0 0.0
27/02:30am 19.3 14.2 3.1 34 7.6 SSE 19 24 10 13 1023.2 1022.9 0.0
27/02:00am 19.7 14.6 3.0 33 7.8 SSE 19 20 10 11 1023.3 1023.0 0.0
27/01:30am 20.3 15.0 3.1 32 8.1 SSE 20 28 11 15 1023.3 1023.0 0.0
27/01:00am 20.5 15.4 2.8 31 8.3 SSE 19 24 10 13 1023.2 1022.9 0.0
27/12:30am 20.6 15.3 2.9 31 8.4 SSE 20 24 11 13 1022.9 1022.6 0.0
27/12:00am 20.3 15.1 2.6 31 8.3 S 19 24 10 13 1022.8 1022.5 0.0
 
Date/Time
EST
Temp
°C
App
Temp
°C
Dew
Point
Rel
Hum
%
Delta-T
°C
Wind Press
QNH
hPa
Press
MSL
hPa
Rain
since 9 am
mm
Dir
 
Spd
km/h
Gust
km/h
Spd
kts
Gust
kts
26/11:30pm 20.8 15.4 2.6 30 8.6 S 20 26 11 14 1022.7 1022.4 0.0
26/11:00pm 21.3 15.9 2.6 29 8.8 S 20 26 11 14 1022.8 1022.5 0.0
26/10:30pm 22.0 16.4 3.2 29 9.0 S 22 30 12 16 1022.5 1022.2 0.0
26/10:00pm 22.4 16.3 3.0 28 9.3 S 24 32 13 17 1022.1 1021.9 0.0
26/09:30pm 22.9 16.9 3.4 28 9.5 S 24 30 13 16 1022.0 1021.8 0.0
26/09:00pm 23.4 17.5 3.9 28 9.6 S 24 30 13 16 1021.8 1021.6 0.0
26/08:30pm 24.1 18.7 4.5 28 9.8 S 22 30 12 16 1021.7 1021.5 0.0
26/08:00pm 24.9 19.5 4.6 27 10.2 S 22 28 12 15 1021.4 1021.2 0.0
26/07:30pm 25.7 20.1 5.3 27 10.5 S 24 30 13 16 1020.8 1020.6 0.0

Other Formats:

Comma delimited format used in spreadsheet applications
http://www.bom.gov.au/fwo/IDQ60801/IDQ60801.94337.axf

JavaScript Object Notation format (JSON) in row-major order
http://www.bom.gov.au/fwo/IDQ60801/IDQ60801.94337.json